createdAt,value
2022-10-23T00:00:34.897Z,100574.88
2022-10-23T00:03:36.978Z,100573.34
2022-10-23T00:06:39.735Z,100577.97
2022-10-23T00:09:41.699Z,100584.41
2022-10-23T00:12:44.685Z,100568.75
2022-10-23T00:15:46.888Z,100573.38
2022-10-23T00:18:48.934Z,100569.22
2022-10-23T00:21:51.441Z,100577.31
2022-10-23T00:24:53.611Z,100567.09
2022-10-23T00:27:55.584Z,100576.81
2022-10-23T00:30:57.676Z,100572.44
2022-10-23T00:33:59.800Z,100567.16
2022-10-23T00:37:01.853Z,100558.66
2022-10-23T00:40:05.025Z,100554.03
2022-10-23T00:43:14.046Z,100558.31
2022-10-23T00:46:15.963Z,100552.06
2022-10-23T00:49:17.956Z,100554.03
2022-10-23T00:52:19.946Z,100554.44
2022-10-23T00:55:24.439Z,100553.88
2022-10-23T00:58:26.583Z,100553.94
2022-10-23T01:01:28.674Z,100553.09
2022-10-23T01:04:32.121Z,100560.28
2022-10-23T01:07:47.086Z,100569.13
2022-10-23T01:11:03.562Z,100572.72
2022-10-23T01:14:08.165Z,100576.41
2022-10-23T01:17:18.244Z,100566.75
2022-10-23T01:20:23.225Z,100563.44
2022-10-23T01:23:55.584Z,100567.28
2022-10-23T01:27:18.523Z,100571.78
2022-10-23T01:30:20.729Z,100557.72
2022-10-23T01:33:29.329Z,100561.38
2022-10-23T01:36:34.404Z,100564.19
2022-10-23T01:39:40.833Z,100565.31
2022-10-23T01:42:50.595Z,100565.41
2022-10-23T01:46:01.811Z,100568.03
2022-10-23T01:49:08.064Z,100568.22
2022-10-23T01:52:14.103Z,100573.41
2022-10-23T01:55:17.571Z,100566.47
2022-10-23T01:58:22.133Z,100565.56
2022-10-23T02:01:27.984Z,100575.44
2022-10-23T02:04:35.930Z,100576.66
2022-10-23T02:07:38.082Z,100574.19
2022-10-23T02:10:52.054Z,100571.72
2022-10-23T02:14:07.556Z,100576.25
2022-10-23T02:17:17.037Z,100569.50
2022-10-23T02:20:35.922Z,100562.50
2022-10-23T02:23:55.324Z,100560.72
2022-10-23T02:27:02.736Z,100560.88
2022-10-23T02:30:10.273Z,100561.91
2022-10-23T02:33:13.667Z,100560.44
2022-10-23T02:36:19.666Z,100560.69
2022-10-23T02:39:24.672Z,100566.13
2022-10-23T02:42:35.315Z,100568.00
2022-10-23T02:46:03.723Z,100556.91
2022-10-23T02:49:37.873Z,100552.78
2022-10-23T02:53:10.525Z,100551.19
2022-10-23T02:56:24.296Z,100557.69
2022-10-23T02:59:35.721Z,100556.16
2022-10-23T03:02:42.305Z,100558.00
2022-10-23T03:05:47.670Z,100561.59
2022-10-23T03:08:54.111Z,100565.03
2022-10-23T03:11:56.044Z,100566.09
2022-10-23T03:14:57.989Z,100564.16
2022-10-23T03:18:00.045Z,100561.38
2022-10-23T03:21:01.993Z,100558.53
2022-10-23T03:24:04.177Z,100564.88
2022-10-23T03:27:06.097Z,100567.66
2022-10-23T03:30:08.728Z,100565.72
2022-10-23T03:33:10.836Z,100569.59
2022-10-23T03:36:12.977Z,100564.47
2022-10-23T03:39:14.996Z,100565.56
2022-10-23T03:42:17.121Z,100564.84
2022-10-23T03:45:19.257Z,100565.09
2022-10-23T03:48:21.353Z,100562.63
2022-10-23T03:51:23.372Z,100560.13
2022-10-23T03:54:26.906Z,100562.13
2022-10-23T03:57:28.968Z,100559.75
2022-10-23T04:00:31.055Z,100560.84
2022-10-23T04:03:33.062Z,100564.00
2022-10-23T04:06:35.413Z,100570.53
2022-10-23T04:09:37.442Z,100567.19
2022-10-23T04:12:39.713Z,100570.81
2022-10-23T04:15:48.406Z,100559.72
2022-10-23T04:18:50.602Z,100556.56
2022-10-23T04:21:52.601Z,100564.22
2022-10-23T04:24:54.565Z,100564.91
2022-10-23T04:27:56.559Z,100564.25
2022-10-23T04:30:58.578Z,100564.91
2022-10-23T04:34:00.653Z,100572.06
2022-10-23T04:37:02.710Z,100574.00
2022-10-23T04:40:04.968Z,100575.84
2022-10-23T04:43:13.352Z,100570.72
2022-10-23T04:46:15.373Z,100571.88
2022-10-23T04:49:17.387Z,100571.28
2022-10-23T04:52:19.383Z,100565.22
2022-10-23T04:55:21.481Z,100560.88
2022-10-23T04:58:24.399Z,100557.19
2022-10-23T05:01:26.531Z,100562.47
2022-10-23T05:04:28.529Z,100567.59
2022-10-23T05:07:30.528Z,100556.53
2022-10-23T05:10:32.621Z,100551.34
2022-10-23T05:13:35.522Z,100563.66
2022-10-23T05:16:43.212Z,100560.09
2022-10-23T05:19:53.106Z,100554.03
2022-10-23T05:22:57.156Z,100544.78
2022-10-23T05:25:59.888Z,100542.00
2022-10-23T05:29:01.906Z,100544.50
2022-10-23T05:32:06.877Z,100543.44
2022-10-23T05:35:12.913Z,100545.94
2022-10-23T05:38:15.669Z,100562.53
2022-10-23T05:41:17.823Z,100555.47
2022-10-23T05:44:19.914Z,100564.25
2022-10-23T05:47:21.843Z,100563.22
2022-10-23T05:50:23.992Z,100565.63
2022-10-23T05:53:25.921Z,100560.19
2022-10-23T05:56:27.948Z,100570.00
2022-10-23T05:59:29.997Z,100558.34
2022-10-23T06:02:33.042Z,100568.63
2022-10-23T06:05:35.015Z,100570.97
2022-10-23T06:08:37.157Z,100576.94
2022-10-23T06:11:39.139Z,100572.28
2022-10-23T06:14:41.097Z,100556.03
2022-10-23T06:17:43.150Z,100554.88
2022-10-23T06:20:45.232Z,100553.50
2022-10-23T06:23:48.093Z,100566.94
2022-10-23T06:26:50.058Z,100591.03
2022-10-23T06:29:52.266Z,100591.28
2022-10-23T06:32:54.157Z,100594.31
2022-10-23T06:35:56.761Z,100593.91
2022-10-23T06:42:01.686Z,100589.63
2022-10-23T06:45:06.375Z,100594.34
2022-10-23T06:48:09.149Z,100591.88
2022-10-23T06:51:13.760Z,100601.53
2022-10-23T06:54:15.725Z,100595.28
2022-10-23T06:57:17.706Z,100604.34
2022-10-23T07:00:21.644Z,100599.78
2022-10-23T07:03:23.656Z,100594.81
2022-10-23T07:06:25.568Z,100595.75
2022-10-23T07:09:27.617Z,100598.41
2022-10-23T07:12:29.715Z,100608.31
2022-10-23T07:15:31.678Z,100601.22
2022-10-23T07:21:40.495Z,100608.25
2022-10-23T07:24:42.545Z,100597.50
2022-10-23T07:27:44.771Z,100609.44
2022-10-23T07:30:56.780Z,100613.87
2022-10-23T07:33:59.026Z,100615.41
2022-10-23T07:37:01.040Z,100611.97
2022-10-23T07:40:07.433Z,100619.16
2022-10-23T07:43:09.352Z,100623.06
2022-10-23T07:46:11.333Z,100629.91
2022-10-23T07:49:13.375Z,100620.34
2022-10-23T07:52:15.330Z,100614.41
2022-10-23T07:55:17.973Z,100617.31
2022-10-23T07:58:20.245Z,100617.34
2022-10-23T08:01:32.715Z,100608.31
2022-10-23T08:04:34.901Z,100616.16
2022-10-23T08:07:37.018Z,100623.37
2022-10-23T08:10:41.626Z,100625.06
2022-10-23T08:13:44.409Z,100632.09
2022-10-23T08:16:46.765Z,100632.81
2022-10-23T08:19:48.978Z,100612.47
2022-10-23T08:22:51.677Z,100631.00
2022-10-23T08:26:01.551Z,100616.19
2022-10-23T08:29:03.536Z,100608.75
2022-10-23T08:32:05.710Z,100621.25
2022-10-23T08:35:07.961Z,100620.84
2022-10-23T08:38:10.711Z,100613.13
2022-10-23T08:41:25.153Z,100605.56
2022-10-23T08:44:35.544Z,100599.06
2022-10-23T08:47:51.084Z,100607.25
2022-10-23T08:50:59.466Z,100601.28
2022-10-23T08:54:22.989Z,100601.47
2022-10-23T08:57:33.300Z,100597.97
2022-10-23T09:00:35.691Z,100602.19
2022-10-23T09:03:37.724Z,100609.63
2022-10-23T09:06:41.980Z,100616.50
2022-10-23T09:10:17.698Z,100603.84
2022-10-23T09:13:45.444Z,100596.41
2022-10-23T09:17:19.015Z,100593.63
2022-10-23T09:20:24.210Z,100590.97
2022-10-23T09:23:26.159Z,100588.31
2022-10-23T09:26:28.121Z,100587.78
2022-10-23T09:29:33.226Z,100589.37
2022-10-23T09:32:37.751Z,100595.31
2022-10-23T09:35:40.129Z,100589.56
2022-10-23T09:38:45.335Z,100582.84
2022-10-23T09:41:47.280Z,100579.84
2022-10-23T09:44:52.270Z,100580.41
2022-10-23T09:48:12.241Z,100584.88
2022-10-23T09:51:21.869Z,100584.91
2022-10-23T09:54:24.292Z,100579.78
2022-10-23T09:57:32.442Z,100586.47
2022-10-23T10:00:34.408Z,100597.22
2022-10-23T10:03:37.634Z,100592.28
2022-10-23T10:09:48.488Z,100581.91
2022-10-23T10:12:58.404Z,100574.66
2022-10-23T10:16:19.306Z,100576.66
2022-10-23T10:20:02.369Z,100583.69
2022-10-23T10:23:22.346Z,100581.38
2022-10-23T10:27:11.608Z,100589.75
2022-10-23T10:30:19.115Z,100575.16
2022-10-23T10:34:21.986Z,100562.50
2022-10-23T10:38:01.252Z,100566.41
2022-10-23T10:41:09.239Z,100554.00
2022-10-23T10:44:29.811Z,100554.78
2022-10-23T10:48:09.733Z,100542.13
2022-10-23T10:51:34.557Z,100539.34
2022-10-23T10:54:58.129Z,100540.97
2022-10-23T10:58:06.152Z,100528.13
2022-10-23T11:01:27.610Z,100523.97
2022-10-23T11:04:40.565Z,100531.78
2022-10-23T11:08:01.568Z,100519.63
2022-10-23T11:11:37.697Z,100509.72
2022-10-23T11:14:42.853Z,100513.69
2022-10-23T11:17:50.335Z,100497.87
2022-10-23T11:21:29.820Z,100489.75
2022-10-23T11:24:40.661Z,100481.84
2022-10-23T11:28:12.034Z,100472.25
2022-10-23T11:31:26.016Z,100470.75
2022-10-23T11:34:43.470Z,100465.75
2022-10-23T11:37:45.619Z,100457.97
2022-10-23T11:44:05.740Z,100454.88
2022-10-23T11:47:40.002Z,100455.00
2022-10-23T11:50:45.626Z,100447.63
2022-10-23T11:53:48.754Z,100429.87
2022-10-23T11:57:14.234Z,100426.84
2022-10-23T12:00:23.347Z,100412.41
2022-10-23T12:03:51.837Z,100408.91
2022-10-23T12:07:01.437Z,100404.94
2022-10-23T12:10:07.627Z,100402.91
2022-10-23T12:13:43.577Z,100394.53
2022-10-23T12:16:46.043Z,100397.34
2022-10-23T12:20:10.003Z,100390.00
2022-10-23T12:23:30.820Z,100393.91
2022-10-23T12:26:51.537Z,100380.66
2022-10-23T12:30:23.094Z,100386.19
2022-10-23T12:33:28.855Z,100365.97
2022-10-23T12:36:51.277Z,100357.84
2022-10-23T12:39:55.574Z,100355.87
2022-10-23T12:43:00.119Z,100351.75
2022-10-23T12:46:27.995Z,100351.66
2022-10-23T12:49:33.774Z,100354.44
2022-10-23T12:52:39.760Z,100343.41
2022-10-23T12:55:50.275Z,100340.56
2022-10-23T12:58:56.676Z,100339.22
2022-10-23T13:01:59.160Z,100333.56
2022-10-23T13:05:05.573Z,100335.47
2022-10-23T13:08:11.074Z,100333.25
2022-10-23T13:11:19.815Z,100333.56
2022-10-23T13:14:34.746Z,100328.91
2022-10-23T13:17:44.873Z,100323.44
2022-10-23T13:20:51.624Z,100329.31
2022-10-23T13:23:55.072Z,100331.19
2022-10-23T13:26:58.769Z,100326.50
2022-10-23T13:30:03.996Z,100321.16
2022-10-23T13:33:26.230Z,100318.16
2022-10-23T13:36:31.928Z,100314.69
2022-10-23T13:39:34.972Z,100307.19
2022-10-23T13:42:37.579Z,100307.72
2022-10-23T13:45:41.162Z,100303.44
2022-10-23T13:48:44.562Z,100297.75
2022-10-23T13:51:53.826Z,100286.56
2022-10-23T13:54:56.332Z,100286.28
2022-10-23T13:57:58.780Z,100284.31
2022-10-23T14:01:01.880Z,100283.84
2022-10-23T14:04:06.984Z,100280.22
2022-10-23T14:07:09.602Z,100280.97
2022-10-23T14:10:12.837Z,100279.06
2022-10-23T14:13:16.599Z,100274.25
2022-10-23T14:16:23.838Z,100280.97
2022-10-23T14:19:26.810Z,100285.34
2022-10-23T14:22:29.561Z,100280.16
2022-10-23T14:25:33.198Z,100274.84
2022-10-23T14:28:36.878Z,100273.34
2022-10-23T14:31:40.948Z,100265.13
2022-10-23T14:34:46.176Z,100262.47
2022-10-23T14:37:48.782Z,100263.72
2022-10-23T14:40:52.547Z,100265.75
2022-10-23T14:43:55.572Z,100268.72
2022-10-23T14:46:59.712Z,100261.69
2022-10-23T14:50:02.326Z,100255.16
2022-10-23T14:53:08.148Z,100253.19
2022-10-23T14:56:11.135Z,100261.41
2022-10-23T14:59:15.632Z,100258.84
2022-10-23T15:02:21.633Z,100253.66
2022-10-23T15:05:25.662Z,100250.37
2022-10-23T15:08:29.580Z,100252.12
2022-10-23T15:11:33.207Z,100253.66
2022-10-23T15:14:35.793Z,100248.19
2022-10-23T15:17:39.881Z,100247.91
2022-10-23T15:20:51.305Z,100243.25
2022-10-23T15:23:54.956Z,100242.59
2022-10-23T15:26:57.495Z,100248.22
2022-10-23T15:30:01.936Z,100248.91
2022-10-23T15:33:05.654Z,100249.75
2022-10-23T15:36:09.759Z,100238.94
2022-10-23T15:39:15.704Z,100232.53
2022-10-23T15:42:19.864Z,100220.00
2022-10-23T15:45:25.497Z,100221.53
2022-10-23T15:48:30.555Z,100223.37
2022-10-23T15:51:33.152Z,100228.28
2022-10-23T15:54:36.144Z,100228.13
2022-10-23T15:57:42.094Z,100234.28
2022-10-23T16:00:46.717Z,100230.75
2022-10-23T16:03:50.714Z,100229.59
2022-10-23T16:06:53.718Z,100231.00
2022-10-23T16:09:56.386Z,100228.03
2022-10-23T16:13:00.617Z,100222.94
2022-10-23T16:16:04.856Z,100225.72
2022-10-23T16:19:07.942Z,100218.97
2022-10-23T16:22:11.902Z,100223.75
2022-10-23T16:25:15.670Z,100228.78
2022-10-23T16:28:19.592Z,100224.78
2022-10-23T16:31:25.277Z,100227.00
2022-10-23T16:34:28.312Z,100235.53
2022-10-23T16:37:31.445Z,100238.59
2022-10-23T16:40:36.136Z,100245.91
2022-10-23T16:43:41.064Z,100236.47
2022-10-23T16:46:45.865Z,100242.38
2022-10-23T16:49:49.555Z,100242.66
2022-10-23T16:52:55.509Z,100246.56
2022-10-23T16:56:01.133Z,100245.31
2022-10-23T16:59:04.881Z,100245.56
2022-10-23T17:02:12.085Z,100245.16
2022-10-23T17:05:18.433Z,100253.53
2022-10-23T17:08:23.512Z,100256.59
2022-10-23T17:11:33.981Z,100254.31
2022-10-23T17:14:41.927Z,100249.53
2022-10-23T17:17:46.481Z,100238.88
2022-10-23T17:20:57.278Z,100246.03
2022-10-23T17:27:12.595Z,100239.53
2022-10-23T17:30:15.747Z,100230.28
2022-10-23T17:33:19.447Z,100239.12
2022-10-23T17:36:23.049Z,100233.66
2022-10-23T17:39:29.582Z,100234.63
2022-10-23T17:42:32.946Z,100235.47
2022-10-23T17:45:36.305Z,100234.53
2022-10-23T17:48:42.323Z,100228.47
2022-10-23T17:51:45.870Z,100234.78
2022-10-23T17:54:52.657Z,100235.88
2022-10-23T17:57:58.024Z,100234.91
2022-10-23T18:01:09.069Z,100234.47
2022-10-23T18:04:13.775Z,100235.00
2022-10-23T18:07:18.275Z,100233.53
2022-10-23T18:10:21.364Z,100243.87
2022-10-23T18:13:24.460Z,100233.63
2022-10-23T18:16:30.772Z,100236.78
2022-10-23T18:19:34.765Z,100239.72
2022-10-23T18:22:38.574Z,100231.25
2022-10-23T18:25:43.713Z,100230.03
2022-10-23T18:28:49.785Z,100228.56
2022-10-23T18:31:52.843Z,100228.31
2022-10-23T18:34:56.975Z,100238.72
2022-10-23T18:38:00.446Z,100226.97
2022-10-23T18:41:04.059Z,100224.88
2022-10-23T18:44:08.127Z,100226.59
2022-10-23T18:47:11.354Z,100224.28
2022-10-23T18:50:15.890Z,100226.13
2022-10-23T18:53:21.331Z,100227.28
2022-10-23T18:56:27.216Z,100225.34
2022-10-23T18:59:31.687Z,100222.22
2022-10-23T19:02:37.042Z,100215.50
2022-10-23T19:05:44.720Z,100212.44
2022-10-23T19:08:49.164Z,100213.31
2022-10-23T19:11:52.363Z,100207.09
2022-10-23T19:14:56.373Z,100206.13
2022-10-23T19:18:00.420Z,100213.31
2022-10-23T19:21:06.582Z,100214.41
2022-10-23T19:24:16.028Z,100214.53
2022-10-23T19:27:20.555Z,100219.03
2022-10-23T19:30:25.025Z,100217.06
2022-10-23T19:33:28.032Z,100221.94
2022-10-23T19:36:33.352Z,100216.87
2022-10-23T19:39:40.018Z,100222.22
2022-10-23T19:42:44.532Z,100222.59
2022-10-23T19:45:48.041Z,100220.47
2022-10-23T19:48:51.173Z,100223.25
2022-10-23T19:51:55.222Z,100226.03
2022-10-23T19:55:02.485Z,100219.28
2022-10-23T19:58:06.083Z,100213.34
2022-10-23T20:01:15.465Z,100222.47
2022-10-23T20:04:19.140Z,100226.22
2022-10-23T20:07:22.873Z,100222.12
2022-10-23T20:10:26.460Z,100217.16
2022-10-23T20:13:29.472Z,100211.25
2022-10-23T20:16:36.492Z,100210.66
2022-10-23T20:19:39.195Z,100208.50
2022-10-23T20:22:44.160Z,100205.09
2022-10-23T20:25:47.363Z,100207.91
2022-10-23T20:28:53.876Z,100204.72
2022-10-23T20:31:57.892Z,100202.75
2022-10-23T20:35:01.027Z,100204.34
2022-10-23T20:38:04.394Z,100202.00
2022-10-23T20:41:07.869Z,100214.25
2022-10-23T20:44:13.725Z,100209.87
2022-10-23T20:47:16.614Z,100210.72
2022-10-23T20:50:19.617Z,100212.66
2022-10-23T20:53:22.571Z,100211.97
2022-10-23T20:56:33.489Z,100216.00
2022-10-23T20:59:35.595Z,100206.87
2022-10-23T21:02:37.792Z,100206.75
2022-10-23T21:05:39.900Z,100216.19
2022-10-23T21:08:42.748Z,100217.56
2022-10-23T21:11:44.805Z,100215.16
2022-10-23T21:14:46.796Z,100212.47
2022-10-23T21:17:50.649Z,100212.72
2022-10-23T21:20:54.198Z,100214.56
2022-10-23T21:23:59.609Z,100217.34
2022-10-23T21:27:01.788Z,100219.31
2022-10-23T21:30:06.230Z,100209.94
2022-10-23T21:33:08.515Z,100207.13
2022-10-23T21:36:17.198Z,100207.13
2022-10-23T21:39:19.549Z,100203.78
2022-10-23T21:42:21.570Z,100204.72
2022-10-23T21:45:24.127Z,100207.13
2022-10-23T21:48:26.089Z,100195.63
2022-10-23T21:51:31.554Z,100197.97
2022-10-23T21:54:33.667Z,100199.19
2022-10-23T21:57:35.714Z,100197.03
2022-10-23T22:00:37.784Z,100193.88
2022-10-23T22:03:39.793Z,100197.78
2022-10-23T22:06:43.477Z,100196.59
2022-10-23T22:09:45.441Z,100201.44
2022-10-23T22:12:47.366Z,100206.03
2022-10-23T22:15:49.308Z,100206.53
2022-10-23T22:18:51.735Z,100207.75
2022-10-23T22:21:54.225Z,100193.84
2022-10-23T22:24:56.208Z,100189.59
2022-10-23T22:27:58.443Z,100194.31
2022-10-23T22:31:01.514Z,100190.22
2022-10-23T22:34:18.633Z,100193.00
2022-10-23T22:37:28.651Z,100199.06
2022-10-23T22:40:30.695Z,100196.53
2022-10-23T22:43:32.709Z,100201.97
2022-10-23T22:46:34.767Z,100200.03
2022-10-23T22:49:38.490Z,100200.75
2022-10-23T22:52:40.445Z,100198.94
2022-10-23T22:55:43.215Z,100195.56
2022-10-23T22:58:46.109Z,100190.81
2022-10-23T23:01:49.205Z,100192.16
2022-10-23T23:04:51.149Z,100209.22
2022-10-23T23:07:53.092Z,100198.81
2022-10-23T23:10:56.781Z,100192.63
2022-10-23T23:13:59.809Z,100189.97
2022-10-23T23:17:02.012Z,100191.09
2022-10-23T23:20:04.340Z,100196.66
2022-10-23T23:23:06.462Z,100191.19
2022-10-23T23:26:08.615Z,100193.13
2022-10-23T23:29:10.543Z,100191.34
2022-10-23T23:32:12.500Z,100190.34
2022-10-23T23:35:14.592Z,100192.03
2022-10-23T23:38:16.508Z,100184.91
2022-10-23T23:41:20.269Z,100187.69
2022-10-23T23:44:22.205Z,100180.06
2022-10-23T23:47:24.426Z,100175.34
2022-10-23T23:50:28.029Z,100177.50
2022-10-23T23:53:30.136Z,100182.84
2022-10-23T23:56:32.146Z,100180.06
2022-10-23T23:59:41.937Z,100172.69
